Time;durP1;ratioP1;P1;durP2;ratioP2;P2;SDS_P1;SDS_P2;PMS_P1;PMS_P2;Temp;Humidity;BMP_temperature;BMP_pressure;BME280_temperature;BME280_humidity;BME280_pressure;Samples;Min_cycle;Max_cycle;Signal;HPM_P1;HPM_P2
2021/07/17 00:00:26;;;;;;;13.73;12.40;;;;;;;25.71;100.00;99740.58;1741860;82;22439;-59
2021/07/17 00:02:53;;;;;;;15.67;12.63;;;;;;;25.77;100.00;99745.30;1742270;82;21152;-62
2021/07/17 00:05:20;;;;;;;13.23;11.77;;;;;;;25.75;100.00;99744.23;1739692;81;21091;-62
2021/07/17 00:07:47;;;;;;;12.30;10.90;;;;;;;25.84;100.00;99739.84;1740168;82;20996;-62
2021/07/17 00:10:19;;;;;;;12.93;11.73;;;;;;;25.90;100.00;99737.29;1728491;82;21553;-63
2021/07/17 00:12:48;;;;;;;13.43;12.00;;;;;;;25.86;100.00;99730.97;1769573;80;21030;-61
2021/07/17 00:15:16;;;;;;;13.70;12.23;;;;;;;25.85;100.00;99729.39;1777308;80;22315;-61
2021/07/17 00:17:44;;;;;;;14.53;12.13;;;;;;;25.83;100.00;99728.89;1775426;80;20881;-59
2021/07/17 00:20:13;;;;;;;14.17;11.80;;;;;;;25.78;100.00;99728.99;1775035;80;21569;-62
2021/07/17 00:22:40;;;;;;;13.17;11.80;;;;;;;25.82;100.00;99729.20;1766549;80;21591;-61
2021/07/17 00:25:09;;;;;;;13.50;11.50;;;;;;;25.82;100.00;99728.65;1776456;80;20908;-61
2021/07/17 00:27:36;;;;;;;13.00;11.67;;;;;;;25.77;100.00;99723.39;1766159;80;21093;-59
2021/07/17 00:30:04;;;;;;;16.10;12.13;;;;;;;25.74;100.00;99721.30;1776970;80;20932;-62
2021/07/17 00:32:31;;;;;;;13.70;12.30;;;;;;;25.74;100.00;99726.64;1776257;80;21065;-59
2021/07/17 00:34:58;;;;;;;13.50;12.13;;;;;;;25.56;100.00;99729.64;1767360;80;21012;-61
2021/07/17 00:37:24;;;;;;;12.97;11.57;;;;;;;25.53;100.00;99724.09;1773702;80;21121;-61
2021/07/17 00:39:52;;;;;;;12.97;11.40;;;;;;;25.55;100.00;99729.95;1767637;80;20943;-62
2021/07/17 00:42:19;;;;;;;14.03;11.20;;;;;;;25.44;100.00;99732.80;1772362;80;21057;-62
2021/07/17 00:44:46;;;;;;;13.90;12.27;;;;;;;24.61;100.00;99737.03;1775998;80;21521;-62
2021/07/17 00:47:14;;;;;;;12.60;11.27;;;;;;;24.75;100.00;99743.23;1777246;80;21086;-62
2021/07/17 00:49:41;;;;;;;15.70;12.57;;;;;;;23.89;100.00;99749.11;1777069;80;21114;-60
2021/07/17 00:52:09;;;;;;;15.87;13.13;;;;;;;24.31;100.00;99748.87;1765351;80;22599;-61
2021/07/17 00:54:36;;;;;;;14.30;11.40;;;;;;;24.51;100.00;99749.98;1774900;80;20964;-62
2021/07/17 00:57:04;;;;;;;13.90;11.50;;;;;;;24.55;100.00;99749.38;1776981;78;21000;-62
2021/07/17 00:59:33;;;;;;;15.77;12.60;;;;;;;24.43;100.00;99752.47;1777187;80;21520;-62
2021/07/17 01:02:01;;;;;;;14.13;12.73;;;;;;;24.38;100.00;99748.53;1776976;80;20967;-62
2021/07/17 01:04:29;;;;;;;13.27;11.53;;;;;;;24.51;100.00;99751.86;1772456;80;21145;-60
2021/07/17 01:06:59;;;;;;;13.63;12.30;;;;;;;24.50;100.00;99745.70;1766799;80;20968;-62
2021/07/17 01:09:27;;;;;;;14.27;11.70;;;;;;;24.43;100.00;99745.27;1756368;80;20897;-62
2021/07/17 01:11:56;;;;;;;13.23;10.77;;;;;;;24.55;100.00;99742.72;1766611;80;20945;-62
2021/07/17 01:14:27;;;;;;;15.23;11.33;;;;;;;24.63;100.00;99742.09;1765914;81;21140;-60
2021/07/17 01:16:53;;;;;;;12.78;11.48;;;;;;;24.86;100.00;99747.88;1766618;81;21151;-63
2021/07/17 01:19:24;;;;;;;12.50;11.27;;;;;;;24.71;100.00;99750.77;1739155;81;21043;-63
2021/07/17 01:21:53;;;;;;;14.75;11.25;;;;;;;24.69;100.00;99743.59;1756968;80;20987;-63
2021/07/17 01:24:21;;;;;;;13.57;12.10;;;;;;;24.71;100.00;99737.44;1766171;80;21111;-62
2021/07/17 01:26:48;;;;;;;12.63;11.33;;;;;;;24.71;100.00;99738.77;1756049;80;21556;-62
2021/07/17 01:29:14;;;;;;;15.90;11.40;;;;;;;24.88;100.00;99740.36;1767150;80;21212;-62
2021/07/17 01:31:41;;;;;;;14.23;11.27;;;;;;;24.79;100.00;99743.45;1766272;80;20976;-60
2021/07/17 01:34:08;;;;;;;12.00;10.80;;;;;;;24.78;100.00;99744.53;1767174;80;20920;-62
2021/07/17 01:36:37;;;;;;;14.27;12.93;;;;;;;24.86;100.00;99738.54;1762709;80;21024;-63
2021/07/17 01:39:05;;;;;;;14.40;12.90;;;;;;;24.87;100.00;99736.66;1766593;81;21044;-63
2021/07/17 01:41:31;;;;;;;14.97;11.40;;;;;;;24.52;100.00;99737.45;1754972;81;21115;-63
2021/07/17 01:43:59;;;;;;;12.93;11.57;;;;;;;24.40;100.00;99740.54;1765872;81;20932;-59
2021/07/17 01:46:27;;;;;;;15.53;12.37;;;;;;;24.41;100.00;99735.45;1766834;80;21059;-62
2021/07/17 01:48:55;;;;;;;13.77;12.37;;;;;;;24.41;100.00;99733.34;1767367;80;21046;-62
2021/07/17 01:51:21;;;;;;;14.87;12.33;;;;;;;24.32;100.00;99731.83;1766364;81;21000;-63
2021/07/17 01:53:51;;;;;;;14.03;12.57;;;;;;;24.33;100.00;99738.73;1756488;80;21166;-60
2021/07/17 01:56:17;;;;;;;13.67;12.23;;;;;;;24.49;100.00;99734.02;1765332;81;20971;-62
2021/07/17 01:58:44;;;;;;;13.90;12.60;;;;;;;24.46;100.00;99737.25;1765479;81;21003;-63
2021/07/17 02:01:11;;;;;;;14.57;13.17;;;;;;;24.46;100.00;99734.05;1768232;80;21078;-62
2021/07/17 02:03:45;;;;;;;12.50;11.20;;;;;;;24.46;100.00;99735.38;1767657;80;21049;-62
2021/07/17 02:06:12;;;;;;;14.60;13.07;;;;;;;24.67;100.00;99737.77;1765440;81;21136;-62
2021/07/17 02:08:41;;;;;;;15.83;12.13;;;;;;;24.23;100.00;99738.86;1731684;82;22108;-63
2021/07/17 02:11:09;;;;;;;13.80;12.40;;;;;;;24.14;100.00;99748.58;1732292;80;21456;-67
2021/07/17 02:13:35;;;;;;;14.93;13.40;;;;;;;24.45;100.00;99736.47;1734232;81;21498;-67
2021/07/17 02:16:03;;;;;;;13.83;12.43;;;;;;;24.62;100.00;99737.83;1728168;81;21005;-61
2021/07/17 02:18:33;;;;;;;14.33;12.37;;;;;;;24.86;100.00;99733.21;1736140;81;21146;-66
2021/07/17 02:21:04;;;;;;;17.77;13.83;;;;;;;24.98;100.00;99741.55;1736603;81;20916;-67
2021/07/17 02:23:31;;;;;;;14.47;11.85;;;;;;;25.30;100.00;99742.64;1738010;81;21011;-68
2021/07/17 02:25:57;;;;;;;16.83;13.73;;;;;;;25.66;100.00;99730.00;1728719;82;20960;-61
2021/07/17 02:28:24;;;;;;;13.77;12.47;;;;;;;25.92;100.00;99737.80;1729810;82;20937;-65
2021/07/17 02:30:52;;;;;;;14.57;13.27;;;;;;;26.22;100.00;99737.48;1731315;82;21149;-67
2021/07/17 02:33:19;;;;;;;15.93;12.47;;;;;;;26.52;100.00;99733.36;1736816;81;20916;-66
2021/07/17 02:35:46;;;;;;;13.53;12.17;;;;;;;26.87;100.00;99737.11;1736811;81;21562;-67
2021/07/17 02:38:12;;;;;;;13.90;11.17;;;;;;;27.21;100.00;99733.11;1732366;81;21001;-61
2021/07/17 02:40:39;;;;;;;14.37;12.87;;;;;;;27.16;100.00;99737.49;1723593;82;21445;-67
2021/07/17 02:43:06;;;;;;;14.40;12.90;;;;;;;27.39;100.00;99730.77;1736697;81;22198;-67
2021/07/17 02:45:33;;;;;;;12.40;11.10;;;;;;;27.40;100.00;99731.79;1730542;81;21495;-67
2021/07/17 02:47:59;;;;;;;13.03;11.70;;;;;;;27.48;100.00;99738.83;1739254;81;20977;-67
2021/07/17 02:50:26;;;;;;;13.67;12.37;;;;;;;27.76;100.00;99732.19;1735304;81;21035;-63
2021/07/17 02:52:54;;;;;;;14.53;12.93;;;;;;;28.23;100.00;99734.36;1724763;81;20979;-67
2021/07/17 02:55:21;;;;;;;15.50;14.00;;;;;;;28.56;100.00;99731.50;1736604;81;21149;-67
2021/07/17 02:57:47;;;;;;;16.83;13.10;;;;;;;28.85;100.00;99736.20;1738512;81;22174;-68
2021/07/17 03:00:14;;;;;;;17.98;13.90;;;;;;;29.04;100.00;99733.75;1737582;78;20987;-64
2021/07/17 03:02:42;;;;;;;18.25;14.40;;;;;;;29.55;100.00;99735.50;1785092;78;21145;-68
2021/07/17 03:05:10;;;;;;;18.15;14.28;;;;;;;30.05;100.00;99724.60;1784305;79;21007;-68
2021/07/17 03:07:36;;;;;;;15.85;14.25;;;;;;;30.42;100.00;99724.30;1774919;79;21186;-64
2021/07/17 03:10:05;;;;;;;15.50;14.05;;;;;;;30.93;100.00;99722.83;1781137;79;21586;-61
2021/07/17 03:12:31;;;;;;;16.20;13.40;;;;;;;31.60;100.00;99717.58;1736153;81;21009;-66
2021/07/17 03:14:58;;;;;;;14.73;13.48;;;;;;;32.02;100.00;99721.39;1740652;80;22509;-66
2021/07/17 03:17:25;;;;;;;14.60;12.10;;;;;;;32.74;100.00;99718.82;1741445;81;21464;-67
2021/07/17 03:19:52;;;;;;;13.32;12.00;;;;;;;33.23;100.00;99710.47;1702247;82;39176;-68
2021/07/17 03:22:22;;;;;;;12.10;11.00;;;;;;;33.34;100.00;99705.33;1738467;81;21012;-63
2021/07/17 03:24:48;;;;;;;13.18;11.90;;;;;;;33.86;100.00;99711.75;1740834;81;21634;-69
2021/07/17 03:27:15;;;;;;;12.73;11.63;;;;;;;34.27;100.00;99707.42;1736082;81;21065;-69
2021/07/17 03:29:41;;;;;;;12.90;11.63;;;;;;;34.85;100.00;99700.08;1742665;80;21572;-70
2021/07/17 03:32:09;;;;;;;13.00;11.78;;;;;;;35.23;100.00;99704.39;1731614;81;21163;-69
2021/07/17 03:34:36;;;;;;;12.85;11.65;;;;;;;33.65;100.00;99709.37;1737462;80;21462;-68
2021/07/17 03:37:03;;;;;;;12.13;11.12;;;;;;;33.69;100.00;99706.75;1730640;82;21319;-66
2021/07/17 03:39:30;;;;;;;12.40;11.15;;;;;;;35.62;99.75;99697.48;1732758;80;20966;-68
2021/07/17 03:41:56;;;;;;;14.38;11.33;;;;;;;36.39;89.89;99704.30;1731108;82;21002;-69
2021/07/17 03:44:26;;;;;;;12.68;11.10;;;;;;;36.88;83.30;99710.08;1729593;81;21218;-59
2021/07/17 03:46:52;;;;;;;11.97;10.78;;;;;;;37.30;77.88;99712.41;1756530;80;21415;-70
2021/07/17 03:49:19;;;;;;;11.68;10.68;;;;;;;37.58;71.11;99708.34;1765447;80;20944;-66
2021/07/17 03:51:45;;;;;;;11.85;10.72;;;;;;;37.79;66.44;99706.34;1767079;79;20996;-66
2021/07/17 03:54:12;;;;;;;12.05;11.00;;;;;;;37.82;66.62;99694.71;1765050;81;21000;-59
2021/07/17 03:56:39;;;;;;;12.00;10.60;;;;;;;38.07;63.30;99701.05;1767113;79;21228;-65
2021/07/17 03:59:05;;;;;;;11.38;10.40;;;;;;;38.19;62.04;99705.41;1764231;80;21059;-67
2021/07/17 04:01:32;;;;;;;11.25;10.25;;;;;;;38.21;60.24;99710.64;1778897;78;21023;-66
2021/07/17 04:03:59;;;;;;;12.35;11.10;;;;;;;37.11;70.28;99709.34;1793826;79;20982;-66
2021/07/17 04:06:26;;;;;;;12.55;11.28;;;;;;;37.03;69.07;99713.16;1801212;78;20998;-64
2021/07/17 04:08:52;;;;;;;12.30;11.00;;;;;;;38.06;60.89;99701.45;1794879;78;22224;-60
2021/07/17 04:11:19;;;;;;;11.63;10.60;;;;;;;38.26;58.86;99708.12;1793796;79;21034;-66
2021/07/17 04:13:45;;;;;;;11.55;10.65;;;;;;;38.38;58.09;99703.75;1786052;79;21595;-67
2021/07/17 04:16:12;;;;;;;11.03;9.93;;;;;;;38.63;57.14;99708.45;1786117;79;21023;-66
2021/07/17 04:18:40;;;;;;;10.50;9.50;;;;;;;39.04;53.28;99704.84;1782292;80;21152;-67
2021/07/17 04:21:06;;;;;;;10.40;9.43;;;;;;;39.00;53.30;99703.28;1776555;79;21123;-65
2021/07/17 04:23:33;;;;;;;9.58;8.78;;;;;;;38.67;53.57;99687.45;1791006;79;21054;-66
2021/07/17 04:26:00;;;;;;;11.28;10.13;;;;;;;38.87;51.01;99696.86;1785673;80;21501;-64
2021/07/17 04:28:26;;;;;;;10.63;9.60;;;;;;;38.62;52.80;99701.46;1790562;79;20970;-63
2021/07/17 04:30:53;;;;;;;9.73;8.53;;;;;;;38.54;52.40;99701.25;1792649;79;20948;-65
2021/07/17 04:33:20;;;;;;;9.98;9.08;;;;;;;37.86;53.46;99701.72;1784712;79;22032;-61
2021/07/17 04:35:47;;;;;;;11.43;10.32;;;;;;;36.84;59.38;99700.53;1786734;79;21430;-66
2021/07/17 04:38:13;;;;;;;12.98;11.88;;;;;;;35.83;71.04;99705.90;1785206;79;20971;-66
2021/07/17 04:40:40;;;;;;;12.37;11.18;;;;;;;34.53;86.66;99702.17;1784863;79;20960;-65
2021/07/17 04:43:07;;;;;;;14.05;12.82;;;;;;;32.62;100.00;99710.22;1784950;79;21422;-61
2021/07/17 04:45:33;;;;;;;14.18;12.88;;;;;;;32.27;100.00;99716.70;1783054;79;21167;-66
2021/07/17 04:48:04;;;;;;;14.33;12.90;;;;;;;30.55;100.00;99725.13;1780648;79;21106;-66
2021/07/17 04:50:29;;;;;;;16.07;14.68;;;;;;;30.73;100.00;99717.70;1785475;79;21069;-65
2021/07/17 04:52:55;;;;;;;16.27;14.87;;;;;;;30.44;100.00;99719.36;1784958;79;21437;-65
2021/07/17 04:55:22;;;;;;;18.00;16.20;;;;;;;30.05;100.00;99720.57;1784262;79;21094;-64
2021/07/17 04:57:48;;;;;;;15.98;14.55;;;;;;;29.60;100.00;99728.41;1780987;78;21541;-65
2021/07/17 05:00:18;;;;;;;16.57;15.05;;;;;;;29.25;100.00;99730.62;1777756;78;21290;-65
2021/07/17 05:02:49;;;;;;;16.32;14.83;;;;;;;28.96;100.00;99738.56;1779162;78;21576;-60
2021/07/17 05:05:19;;;;;;;14.75;13.43;;;;;;;28.76;100.00;99745.38;1727793;81;21660;-65
2021/07/17 05:07:46;;;;;;;14.90;13.32;;;;;;;28.55;100.00;99741.18;1776946;78;22280;-67
2021/07/17 05:10:17;;;;;;;15.35;13.90;;;;;;;28.52;100.00;99743.93;1774135;79;21265;-69
2021/07/17 05:12:43;;;;;;;14.90;13.50;;;;;;;28.90;100.00;99735.80;1771945;79;20951;-65
2021/07/17 05:15:12;;;;;;;14.85;13.25;;;;;;;28.98;100.00;99733.67;1770155;79;21551;-70
2021/07/17 05:17:38;;;;;;;15.80;14.23;;;;;;;28.88;100.00;99733.44;1776595;78;21169;-69
2021/07/17 05:20:08;;;;;;;15.28;13.78;;;;;;;29.04;100.00;99730.52;1770511;79;20979;-69
2021/07/17 05:22:34;;;;;;;15.08;13.60;;;;;;;29.22;100.00;99733.17;1763662;79;21208;-65
2021/07/17 05:25:02;;;;;;;14.07;12.88;;;;;;;29.12;100.00;99728.91;1772447;79;21512;-68
2021/07/17 05:27:28;;;;;;;14.43;13.13;;;;;;;29.16;100.00;99731.19;1780955;78;21020;-64
2021/07/17 05:29:55;;;;;;;12.98;11.80;;;;;;;29.54;100.00;99731.78;1774131;79;21038;-71
2021/07/17 05:32:21;;;;;;;14.00;12.80;;;;;;;29.69;100.00;99732.61;1769331;79;21510;-68
2021/07/17 05:34:48;;;;;;;13.60;12.07;;;;;;;29.65;100.00;99728.99;1774721;80;21133;-61
2021/07/17 05:37:15;;;;;;;13.35;12.15;;;;;;;29.49;100.00;99735.44;1777209;80;21308;-67
2021/07/17 05:39:41;;;;;;;14.50;13.28;;;;;;;29.41;100.00;99733.58;1775737;78;21019;-69
2021/07/17 05:42:10;;;;;;;13.65;12.43;;;;;;;29.40;100.00;99737.91;1776458;80;21803;-68
2021/07/17 05:44:37;;;;;;;12.50;11.38;;;;;;;29.39;100.00;99734.44;1777982;80;20908;-62
2021/07/17 05:47:03;;;;;;;13.50;12.35;;;;;;;29.59;100.00;99741.05;1777073;80;21127;-72
2021/07/17 05:49:31;;;;;;;13.38;12.18;;;;;;;29.48;100.00;99745.95;1777271;80;20998;-68
2021/07/17 05:51:58;;;;;;;13.30;11.97;;;;;;;29.69;100.00;99746.04;1775784;79;21129;-66
2021/07/17 05:54:24;;;;;;;12.85;11.63;;;;;;;29.92;100.00;99748.45;1777540;80;21470;-70
2021/07/17 05:56:51;;;;;;;12.60;11.43;;;;;;;30.21;100.00;99746.34;1730080;80;21012;-62
2021/07/17 05:59:18;;;;;;;13.62;12.37;;;;;;;30.42;100.00;99737.73;1777119;80;21147;-66
2021/07/17 06:01:46;;;;;;;15.63;14.03;;;;;;;30.49;100.00;99737.19;1773083;78;21031;-68
2021/07/17 06:04:12;;;;;;;15.08;13.68;;;;;;;30.43;100.00;99741.99;1766462;80;21502;-70
2021/07/17 06:06:39;;;;;;;14.65;13.28;;;;;;;30.38;100.00;99737.36;1765525;79;21537;-71
2021/07/17 06:09:05;;;;;;;14.35;13.05;;;;;;;30.17;100.00;99735.45;1764959;81;21039;-71
2021/07/17 06:11:31;;;;;;;15.70;14.23;;;;;;;29.95;100.00;99733.81;1764625;79;21809;-65
2021/07/17 06:13:59;;;;;;;15.70;14.35;;;;;;;29.97;100.00;99734.85;1767051;79;21342;-71
2021/07/17 06:16:25;;;;;;;16.48;14.78;;;;;;;30.04;100.00;99733.23;1706186;81;21534;-71
2021/07/17 06:18:52;;;;;;;16.17;14.78;;;;;;;30.03;100.00;99732.19;1766050;79;20992;-70
2021/07/17 06:21:18;;;;;;;15.50;14.10;;;;;;;30.11;100.00;99743.44;1763729;80;21047;-62
2021/07/17 06:23:45;;;;;;;15.20;13.68;;;;;;;30.05;100.00;99743.41;1766072;80;22204;-61
2021/07/17 06:26:11;;;;;;;15.60;14.18;;;;;;;30.06;100.00;99740.95;1767728;79;21454;-70
2021/07/17 06:28:38;;;;;;;15.95;14.53;;;;;;;30.22;100.00;99740.63;1774185;79;21032;-70
2021/07/17 06:31:04;;;;;;;14.90;13.40;;;;;;;30.33;100.00;99746.41;1775462;79;20979;-71
2021/07/17 06:33:31;;;;;;;13.65;12.45;;;;;;;30.37;100.00;99739.27;1764035;81;21048;-72
2021/07/17 06:35:57;;;;;;;14.43;13.03;;;;;;;30.85;100.00;99742.55;1765074;80;21147;-71
2021/07/17 06:38:24;;;;;;;15.45;14.00;;;;;;;31.37;100.00;99735.30;1767125;79;20984;-70
2021/07/17 06:40:51;;;;;;;15.85;14.38;;;;;;;31.92;100.00;99735.32;1754861;79;21008;-70
2021/07/17 06:43:17;;;;;;;15.72;14.33;;;;;;;32.21;100.00;99726.95;1766699;79;20924;-63
2021/07/17 06:45:44;;;;;;;16.60;15.10;;;;;;;31.84;100.00;99730.81;1763939;79;20916;-69
2021/07/17 06:48:11;;;;;;;15.18;13.78;;;;;;;31.59;100.00;99729.45;1765636;79;21156;-62
2021/07/17 06:50:38;;;;;;;17.62;15.95;;;;;;;31.58;100.00;99721.16;1767543;79;21038;-70
2021/07/17 06:53:04;;;;;;;16.90;15.25;;;;;;;31.44;100.00;99726.08;1765388;79;20991;-71
2021/07/17 06:55:33;;;;;;;15.55;14.13;;;;;;;31.52;100.00;99727.91;1765995;79;21008;-71
2021/07/17 06:58:00;;;;;;;16.60;15.13;;;;;;;31.21;100.00;99735.11;1766987;79;21157;-70
2021/07/17 07:00:27;;;;;;;15.00;13.60;;;;;;;31.23;100.00;99726.94;1766560;79;21152;-70
2021/07/17 07:02:53;;;;;;;17.77;15.90;;;;;;;31.54;100.00;99729.69;1759465;79;21544;-70
2021/07/17 07:05:20;;;;;;;19.37;17.67;;;;;;;31.57;100.00;99731.72;1740884;80;20944;-70
2021/07/17 07:07:47;;;;;;;18.50;16.62;;;;;;;31.12;100.00;99723.66;1750297;80;21471;-69
2021/07/17 07:10:14;;;;;;;18.85;17.15;;;;;;;31.12;100.00;99723.66;1749685;80;21101;-69
2021/07/17 07:12:40;;;;;;;20.92;17.95;;;;;;;31.21;100.00;99728.38;1694138;84;21117;-68
2021/07/17 07:15:08;;;;;;;19.10;17.10;;;;;;;31.26;100.00;99729.53;1704879;83;20964;-66
2021/07/17 07:17:37;;;;;;;16.93;15.40;;;;;;;31.49;100.00;99726.66;1706571;83;20949;-68
2021/07/17 07:20:06;;;;;;;17.02;15.50;;;;;;;32.21;100.00;99726.17;1700642;83;21134;-68
2021/07/17 07:22:34;;;;;;;18.10;16.20;;;;;;;33.04;100.00;99711.15;1704789;83;21070;-67
2021/07/17 07:25:00;;;;;;;16.73;15.15;;;;;;;33.60;100.00;99717.76;1711527;82;21793;-67
2021/07/17 07:27:27;;;;;;;15.40;13.98;;;;;;;34.10;100.00;99713.48;1735637;80;20983;-68
2021/07/17 07:29:54;;;;;;;16.15;14.63;;;;;;;34.58;100.00;99716.77;1738215;80;21442;-67
2021/07/17 07:32:20;;;;;;;14.07;12.70;;;;;;;35.10;98.95;99716.77;1727047;80;21532;-66
2021/07/17 07:34:47;;;;;;;13.60;12.40;;;;;;;35.33;93.83;99717.33;1679100;84;21189;-66
2021/07/17 07:37:15;;;;;;;14.30;13.00;;;;;;;35.32;88.63;99719.84;1738847;80;21136;-67
2021/07/17 07:39:42;;;;;;;13.38;10.82;;;;;;;35.59;82.96;99716.61;1742463;80;21038;-67
2021/07/17 07:42:08;;;;;;;12.50;11.30;;;;;;;35.51;88.49;99718.42;1739420;80;21042;-61
2021/07/17 07:44:36;;;;;;;12.15;10.95;;;;;;;35.78;90.23;99718.42;1740787;82;20990;-67
2021/07/17 07:47:04;;;;;;;12.23;11.12;;;;;;;36.19;86.51;99720.75;1742555;82;21120;-66
2021/07/17 07:49:32;;;;;;;12.80;11.65;;;;;;;36.36;78.36;99719.39;1740533;80;21135;-65
2021/07/17 07:51:59;;;;;;;12.37;11.18;;;;;;;36.32;75.48;99720.50;1740854;82;21045;-67
2021/07/17 07:54:26;;;;;;;10.63;9.50;;;;;;;36.02;75.19;99716.64;1741337;80;20972;-60
2021/07/17 07:56:53;;;;;;;15.00;11.43;;;;;;;36.21;81.25;99720.37;1743036;80;20976;-68
2021/07/17 07:59:20;;;;;;;9.53;8.50;;;;;;;36.77;77.01;99714.05;1742586;82;21022;-67
2021/07/17 08:01:47;;;;;;;10.23;8.80;;;;;;;37.19;66.72;99721.05;1740657;82;21180;-66
2021/07/17 08:04:14;;;;;;;9.83;8.95;;;;;;;37.41;64.25;99714.65;1776578;80;20982;-66
2021/07/17 08:06:42;;;;;;;10.20;9.30;;;;;;;37.36;65.46;99723.14;1777735;80;20931;-67
2021/07/17 08:09:09;;;;;;;10.38;9.38;;;;;;;37.14;63.08;99723.54;1777349;79;21104;-67
2021/07/17 08:11:36;;;;;;;9.63;8.73;;;;;;;36.48;69.70;99714.31;1777475;79;21398;-66
2021/07/17 08:14:04;;;;;;;10.43;9.48;;;;;;;36.31;69.74;99719.73;1778960;80;21141;-66
2021/07/17 08:16:32;;;;;;;9.03;7.97;;;;;;;36.32;71.17;99719.14;1777764;80;21029;-66
2021/07/17 08:19:00;;;;;;;9.10;8.30;;;;;;;36.38;73.03;99717.09;1778267;80;21101;-69
2021/07/17 08:21:26;;;;;;;9.25;8.35;;;;;;;36.79;70.29;99710.39;1779505;80;20971;-66
2021/07/17 08:23:53;;;;;;;9.13;8.15;;;;;;;36.65;67.99;99711.60;1777157;80;20998;-62
2021/07/17 08:26:20;;;;;;;9.55;8.58;;;;;;;37.04;67.65;99713.94;1776408;80;21257;-61
2021/07/17 08:28:48;;;;;;;9.55;8.73;;;;;;;37.28;63.17;99719.36;1777137;80;21110;-68
2021/07/17 08:31:15;;;;;;;8.83;7.92;;;;;;;37.01;64.09;99714.90;1776544;80;20992;-68
2021/07/17 08:33:41;;;;;;;9.23;8.18;;;;;;;37.23;62.11;99713.12;1777548;80;20955;-67
2021/07/17 08:36:08;;;;;;;8.25;7.55;;;;;;;37.25;59.77;99708.10;1778631;79;21536;-62
2021/07/17 08:38:35;;;;;;;8.95;7.90;;;;;;;37.16;64.52;99708.98;1776089;78;21042;-63
2021/07/17 08:41:02;;;;;;;8.20;7.20;;;;;;;37.34;64.03;99700.97;1774506;79;21438;-68
2021/07/17 08:43:28;;;;;;;8.95;8.15;;;;;;;37.46;62.50;99707.49;1778375;79;20980;-67
2021/07/17 08:45:55;;;;;;;9.43;8.53;;;;;;;37.73;58.21;99701.83;1779001;80;21266;-68
2021/07/17 08:48:22;;;;;;;9.15;8.33;;;;;;;37.79;57.83;99704.98;1778463;80;21008;-61
2021/07/17 08:50:49;;;;;;;8.18;7.37;;;;;;;37.82;57.03;99698.79;1778258;80;21135;-61
2021/07/17 08:53:17;;;;;;;15.13;8.20;;;;;;;38.08;56.71;99697.78;1774330;78;21220;-68
2021/07/17 08:55:44;;;;;;;12.47;8.58;;;;;;;38.40;55.45;99697.31;1779432;78;20984;-68
2021/07/17 08:58:12;;;;;;;9.88;8.33;;;;;;;38.75;53.22;99694.46;1777845;80;21054;-66
2021/07/17 09:00:41;;;;;;;8.30;7.60;;;;;;;39.04;51.67;99690.44;1776578;79;20990;-61
2021/07/17 09:03:11;;;;;;;9.20;8.18;;;;;;;39.16;49.43;99694.90;1777034;80;21134;-67
2021/07/17 09:05:49;;;;;;;8.13;7.42;;;;;;;38.99;48.44;99689.47;1774919;79;20968;-68
2021/07/17 09:08:18;;;;;;;11.00;8.23;;;;;;;38.63;52.70;99682.58;1772244;79;21035;-61
2021/07/17 09:10:50;;;;;;;7.90;7.12;;;;;;;38.69;50.39;99686.49;1771297;79;20984;-63
2021/07/17 09:13:23;;;;;;;8.90;8.03;;;;;;;39.07;47.78;99682.84;1772627;79;21151;-68
2021/07/17 09:16:05;;;;;;;8.95;8.13;;;;;;;39.09;45.39;99685.95;1774809;79;21141;-67
2021/07/17 09:18:53;;;;;;;8.75;7.80;;;;;;;38.68;47.10;99682.19;1770503;79;22288;-61
2021/07/17 09:21:29;;;;;;;8.90;8.10;;;;;;;38.08;50.85;99679.50;1776335;79;21535;-69
2021/07/17 09:24:01;;;;;;;8.60;7.80;;;;;;;37.82;53.43;99671.59;1775527;79;21094;-67
2021/07/17 09:26:36;;;;;;;9.43;8.53;;;;;;;37.63;54.99;99678.09;1774542;79;21046;-66
2021/07/17 09:29:07;;;;;;;8.28;7.58;;;;;;;37.63;56.80;99668.58;1775297;79;21132;-68
2021/07/17 09:31:54;;;;;;;8.78;8.05;;;;;;;38.20;52.86;99661.45;1774093;79;20992;-62
2021/07/17 09:34:23;;;;;;;8.40;7.70;;;;;;;38.33;56.33;99678.20;1774759;80;21086;-69
2021/07/17 09:37:07;;;;;;;9.20;8.13;;;;;;;38.61;48.16;99671.31;1765174;79;20995;-69
2021/07/17 09:39:42;;;;;;;8.40;7.70;;;;;;;38.84;47.77;99660.08;1775697;79;21049;-60
2021/07/17 09:42:13;;;;;;;8.80;7.90;;;;;;;39.01;44.98;99666.09;1773839;80;21251;-68
2021/07/17 09:44:39;;;;;;;8.68;7.60;;;;;;;38.76;45.43;99666.08;1775586;79;20963;-68
2021/07/17 09:47:21;;;;;;;8.85;7.35;;;;;;;38.52;46.82;99668.16;1776157;80;20916;-69
2021/07/17 09:49:48;;;;;;;8.30;7.47;;;;;;;38.50;48.46;99666.43;1774660;80;22019;-69
2021/07/17 09:52:21;;;;;;;9.25;8.10;;;;;;;38.85;45.27;99667.84;1775020;79;21086;-71
2021/07/17 09:55:03;;;;;;;7.67;6.97;;;;;;;38.86;43.87;99667.26;1774050;79;21153;-71
2021/07/17 09:57:31;;;;;;;7.95;7.17;;;;;;;38.81;44.98;99670.38;1776007;79;22238;-70
2021/07/17 10:00:07;;;;;;;7.92;6.97;;;;;;;38.96;45.44;99666.49;1772165;79;21449;-69
2021/07/17 10:02:37;;;;;;;7.17;6.37;;;;;;;39.25;45.09;99661.84;1771816;79;21083;-69
2021/07/17 10:05:06;;;;;;;7.70;7.00;;;;;;;39.55;43.63;99657.86;1775933;78;20998;-70
2021/07/17 10:07:32;;;;;;;7.45;6.45;;;;;;;39.92;43.09;99665.56;1775275;78;21732;-69
2021/07/17 10:10:00;;;;;;;7.83;7.03;;;;;;;39.97;40.69;99663.00;1775248;79;21555;-70
2021/07/17 10:12:40;;;;;;;6.67;6.08;;;;;;;40.15;40.50;99654.76;1778167;79;21054;-70
2021/07/17 10:15:10;;;;;;;6.80;6.17;;;;;;;40.27;39.05;99661.92;1775896;79;20892;-69
2021/07/17 10:17:38;;;;;;;7.92;6.60;;;;;;;40.56;38.00;99663.89;1781595;79;21539;-69
2021/07/17 10:20:07;;;;;;;7.08;6.35;;;;;;;40.33;37.79;99658.17;1781652;79;21161;-69
2021/07/17 10:22:34;;;;;;;7.05;6.35;;;;;;;39.66;39.39;99659.38;1776816;79;21101;-61
2021/07/17 10:25:01;;;;;;;6.37;5.78;;;;;;;39.45;39.20;99654.59;1780774;79;21010;-63
2021/07/17 10:27:28;;;;;;;6.53;5.67;;;;;;;38.99;39.62;99654.81;1774174;79;21003;-71
2021/07/17 10:29:55;;;;;;;6.25;5.70;;;;;;;38.64;41.61;99652.81;1775133;78;20960;-66
2021/07/17 10:32:22;;;;;;;7.33;5.95;;;;;;;38.43;41.68;99649.48;1771198;79;21149;-69
2021/07/17 10:34:50;;;;;;;6.62;5.75;;;;;;;38.33;42.83;99653.70;1775046;79;21120;-69
2021/07/17 10:37:22;;;;;;;7.10;6.50;;;;;;;38.11;43.34;99649.36;1774304;79;21061;-69
2021/07/17 10:40:06;;;;;;;7.33;6.08;;;;;;;38.36;43.27;99645.39;1778391;79;21557;-67
2021/07/17 10:42:33;;;;;;;7.20;6.50;;;;;;;38.83;42.62;99647.04;1776821;79;21025;-60
2021/07/17 10:44:59;;;;;;;8.10;7.30;;;;;;;38.75;43.12;99648.73;1778337;78;21148;-67
2021/07/17 10:47:38;;;;;;;7.28;6.60;;;;;;;38.45;43.61;99649.86;1773242;79;20920;-65
2021/07/17 10:50:07;;;;;;;7.33;6.37;;;;;;;38.42;44.06;99650.66;1770204;79;21493;-66
2021/07/17 10:52:40;;;;;;;6.83;6.17;;;;;;;38.23;43.15;99649.03;1776765;79;20955;-67
2021/07/17 10:55:32;;;;;;;6.80;6.10;;;;;;;38.16;43.12;99644.92;1775031;80;21011;-65
2021/07/17 10:58:12;;;;;;;7.00;6.33;;;;;;;38.49;44.11;99647.15;1762227;80;21156;-65
2021/07/17 11:00:48;;;;;;;8.80;6.50;;;;;;;38.66;42.59;99634.92;1763678;78;20959;-64
2021/07/17 11:03:30;;;;;;;7.35;6.55;;;;;;;38.85;43.46;99648.00;1776441;80;21760;-65
2021/07/17 11:05:56;;;;;;;7.95;6.45;;;;;;;38.90;40.50;99646.23;1778476;79;20935;-64
2021/07/17 11:08:35;;;;;;;6.62;6.03;;;;;;;38.58;40.17;99644.84;1766844;79;21015;-65
2021/07/17 11:11:35;;;;;;;7.05;6.40;;;;;;;38.21;40.88;99642.59;1772058;80;21095;-65
2021/07/17 11:14:13;;;;;;;7.03;6.42;;;;;;;38.41;41.98;99636.83;1752162;79;20948;-66
2021/07/17 11:16:47;;;;;;;7.65;6.95;;;;;;;38.65;41.75;99635.32;1780120;79;20962;-68
2021/07/17 11:19:24;;;;;;;7.83;7.12;;;;;;;38.50;42.69;99635.11;1778088;80;21568;-67
2021/07/17 11:21:51;;;;;;;8.65;7.85;;;;;;;38.33;41.52;99630.56;1783390;79;20997;-66